TimeAKDT,TemperatureF,Dew PointF,Humidity,Sea Level PressureIn,VisibilityMPH,Wind Direction,Wind SpeedMPH,Gust SpeedMPH,PrecipitationIn,Events,Conditions,WindDirDegrees,DateUTC
12:01 AM,42.8,42.8,100,29.84,1.2,NNW,20.7,-,N/A,,Overcast,330,2013-07-07 08:01:00
12:10 AM,42.8,42.8,100,29.84,2.5,NNW,21.9,-,N/A,,Overcast,330,2013-07-07 08:10:00
12:20 AM,42.8,42.8,100,29.84,1.2,NNW,19.6,-,N/A,,Overcast,330,2013-07-07 08:20:00
12:46 AM,42.8,42.8,100,29.85,1.0,NNW,20.7,-,N/A,,Mist,330,2013-07-07 08:46:00
12:53 AM,43.0,43.0,100,29.82,1.8,NNW,20.7,-,N/A,,Overcast,330,2013-07-07 08:53:00
1:01 AM,42.8,42.8,100,29.85,2.0,NNW,20.7,-,N/A,,Overcast,330,2013-07-07 09:01:00
1:20 AM,42.8,42.8,100,29.86,3.0,NNW,20.7,-,N/A,,Overcast,330,2013-07-07 09:20:00
1:31 AM,42.8,42.8,100,29.86,2.5,NNW,19.6,-,N/A,,Overcast,330,2013-07-07 09:31:00
1:42 AM,42.8,42.8,100,29.86,1.2,NNW,19.6,-,N/A,,Overcast,330,2013-07-07 09:42:00
1:47 AM,42.8,42.8,100,29.86,0.8,NNW,19.6,25.3,N/A,,Overcast,330,2013-07-07 09:47:00
1:53 AM,43.0,43.0,100,29.83,1.0,NW,20.7,26.5,N/A,,Overcast,320,2013-07-07 09:53:00
1:59 AM,42.8,42.8,100,29.87,2.0,NW,18.4,-,N/A,,Overcast,320,2013-07-07 09:59:00
2:07 AM,42.8,42.8,100,29.87,9.0,NW,18.4,-,N/A,,Overcast,320,2013-07-07 10:07:00
2:15 AM,42.8,42.8,100,29.88,10.0,NW,17.3,26.5,N/A,,Overcast,320,2013-07-07 10:15:00
2:41 AM,42.8,42.8,100,29.89,2.5,NW,19.6,-,N/A,,Overcast,320,2013-07-07 10:41:00
2:47 AM,42.8,42.8,100,29.89,1.0,NW,18.4,25.3,N/A,,Overcast,320,2013-07-07 10:47:00
2:53 AM,43.0,43.0,100,29.86,1.0,NW,16.1,25.3,N/A,,Overcast,320,2013-07-07 10:53:00
2:58 AM,42.8,42.8,100,29.89,2.5,NW,19.6,-,N/A,,Overcast,320,2013-07-07 10:58:00
3:05 AM,44.6,44.6,100,29.89,10.0,NW,13.8,-,N/A,,Overcast,310,2013-07-07 11:05:00
3:14 AM,42.8,42.8,100,29.89,1.8,NW,15.0,-,N/A,,Overcast,310,2013-07-07 11:14:00
3:27 AM,42.8,42.8,100,29.89,3.0,NW,16.1,-,N/A,,Overcast,310,2013-07-07 11:27:00
3:39 AM,42.8,42.8,100,29.89,10.0,NW,17.3,-,N/A,,Overcast,320,2013-07-07 11:39:00
3:53 AM,44.1,43.0,96,29.86,10.0,NW,18.4,-,N/A,,Overcast,320,2013-07-07 11:53:00
4:09 AM,42.8,42.8,100,29.90,10.0,NW,17.3,24.2,N/A,,Overcast,310,2013-07-07 12:09:00
4:20 AM,42.8,42.8,100,29.90,10.0,NW,17.3,25.3,N/A,,Overcast,320,2013-07-07 12:20:00
4:34 AM,42.8,42.8,100,29.90,1.8,NW,18.4,-,N/A,,Overcast,320,2013-07-07 12:34:00
4:53 AM,41.0,41.0,100,29.88,1.2,WNW,12.7,-,N/A,,Overcast,300,2013-07-07 12:53:00
5:06 AM,42.8,42.8,100,29.91,3.0,NW,17.3,23.0,N/A,,Overcast,310,2013-07-07 13:06:00
5:21 AM,42.8,42.8,100,29.91,2.5,NW,17.3,24.2,N/A,,Overcast,310,2013-07-07 13:21:00
5:29 AM,42.8,42.8,100,29.91,3.0,NW,19.6,26.5,N/A,,Overcast,320,2013-07-07 13:29:00
5:53 AM,43.0,43.0,100,29.89,5.0,NW,18.4,26.5,N/A,,Overcast,310,2013-07-07 13:53:00
6:18 AM,42.8,42.8,100,29.92,1.8,NW,18.4,25.3,N/A,,Overcast,320,2013-07-07 14:18:00
6:34 AM,42.8,42.8,100,29.92,0.8,NW,19.6,-,N/A,,Overcast,320,2013-07-07 14:34:00
6:53 AM,43.0,43.0,100,29.90,0.2,NW,15.0,-,N/A,Fog,Fog,310,2013-07-07 14:53:00
7:27 AM,42.8,42.8,100,29.94,1.2,NW,16.1,-,N/A,,Overcast,310,2013-07-07 15:27:00
7:37 AM,42.8,42.8,100,29.94,0.8,WNW,15.0,-,N/A,,Overcast,300,2013-07-07 15:37:00
7:53 AM,42.1,42.1,100,29.91,0.8,WNW,13.8,-,N/A,,Mist,300,2013-07-07 15:53:00
8:02 AM,42.8,42.8,100,29.94,1.2,WNW,15.0,-,N/A,,Overcast,300,2013-07-07 16:02:00
8:10 AM,42.8,42.8,100,29.95,3.0,WNW,13.8,-,N/A,,Overcast,300,2013-07-07 16:10:00
8:20 AM,42.8,42.8,100,29.95,1.8,WNW,12.7,-,N/A,,Overcast,300,2013-07-07 16:20:00
8:37 AM,41.0,41.0,100,29.95,3.0,WNW,13.8,-,N/A,,Overcast,300,2013-07-07 16:37:00
8:53 AM,41.0,41.0,100,29.92,7.0,WNW,13.8,-,N/A,,Overcast,300,2013-07-07 16:53:00
8:56 AM,41.0,41.0,100,29.95,1.8,NW,13.8,-,N/A,,Overcast,310,2013-07-07 16:56:00
8:59 AM,41.0,41.0,100,29.95,0.8,NW,12.7,-,N/A,,Overcast,310,2013-07-07 16:59:00
9:17 AM,41.0,41.0,100,29.96,0.5,WNW,12.7,-,N/A,Fog,Fog,300,2013-07-07 17:17:00
9:43 AM,41.0,41.0,100,29.96,1.2,WNW,13.8,-,N/A,,Overcast,300,2013-07-07 17:43:00
9:53 AM,41.0,41.0,100,29.93,1.5,WNW,13.8,-,N/A,,Overcast,300,2013-07-07 17:53:00
9:57 AM,41.0,41.0,100,29.96,0.8,NW,13.8,-,N/A,,Overcast,310,2013-07-07 17:57:00
10:08 AM,42.8,42.8,100,29.96,1.2,WNW,11.5,-,N/A,,Overcast,300,2013-07-07 18:08:00
10:18 AM,41.0,41.0,100,29.97,0.8,WNW,13.8,-,N/A,,Overcast,300,2013-07-07 18:18:00
10:26 AM,41.0,41.0,100,29.97,1.2,NW,11.5,-,N/A,,Overcast,310,2013-07-07 18:26:00
10:38 AM,42.8,42.8,100,29.97,3.0,WNW,13.8,-,N/A,,Overcast,300,2013-07-07 18:38:00
10:53 AM,42.1,42.1,100,29.94,6.0,NW,13.8,-,N/A,,Overcast,310,2013-07-07 18:53:00
11:06 AM,42.8,42.8,100,29.98,1.8,NW,11.5,-,N/A,,Overcast,320,2013-07-07 19:06:00
11:13 AM,42.8,42.8,100,29.98,2.0,NW,11.5,-,N/A,,Overcast,320,2013-07-07 19:13:00
11:25 AM,42.8,42.8,100,29.98,4.0,NW,12.7,-,N/A,,Overcast,310,2013-07-07 19:25:00
11:53 AM,42.1,42.1,100,29.95,6.0,West,9.2,-,N/A,,Overcast,270,2013-07-07 19:53:00
12:20 PM,42.8,42.8,100,29.98,1.8,West,10.4,-,N/A,,Overcast,270,2013-07-07 20:20:00
12:34 PM,42.8,42.8,100,29.98,3.0,West,11.5,-,N/A,,Overcast,280,2013-07-07 20:34:00
12:44 PM,42.8,42.8,100,29.98,8.0,West,10.4,-,N/A,,Overcast,280,2013-07-07 20:44:00
12:53 PM,43.0,42.1,97,29.95,10.0,West,10.4,-,N/A,,Overcast,270,2013-07-07 20:53:00
1:33 PM,42.8,42.8,100,29.99,5.0,West,9.2,-,N/A,,Overcast,270,2013-07-07 21:33:00
1:53 PM,43.0,43.0,100,29.95,4.0,West,6.9,-,N/A,,Overcast,260,2013-07-07 21:53:00
2:53 PM,44.1,43.0,96,29.96,2.5,West,9.2,-,N/A,,Overcast,270,2013-07-07 22:53:00
3:00 PM,44.6,42.8,93,29.99,4.0,West,8.1,-,N/A,,Overcast,270,2013-07-07 23:00:00
3:08 PM,42.8,42.8,100,29.99,1.5,West,5.8,-,N/A,,Overcast,260,2013-07-07 23:08:00
3:13 PM,42.8,42.8,100,30.00,0.8,West,5.8,-,N/A,,Overcast,270,2013-07-07 23:13:00
3:44 PM,44.6,42.8,93,30.00,1.5,WSW,9.2,-,N/A,,Overcast,240,2013-07-07 23:44:00
3:46 PM,44.6,42.8,93,30.00,4.0,WSW,9.2,-,N/A,,Overcast,240,2013-07-07 23:46:00
3:53 PM,44.1,43.0,96,29.97,1.8,WSW,10.4,-,N/A,,Overcast,250,2013-07-07 23:53:00
3:55 PM,42.8,42.8,100,30.00,0.8,WSW,10.4,-,N/A,,Overcast,250,2013-07-07 23:55:00
4:05 PM,44.6,42.8,93,30.00,1.2,WSW,9.2,-,N/A,,Overcast,240,2013-07-08 00:05:00
4:08 PM,44.6,42.8,93,30.00,4.0,WSW,9.2,-,N/A,,Overcast,250,2013-07-08 00:08:00
4:16 PM,44.6,44.6,100,30.00,6.0,WSW,6.9,-,N/A,,Overcast,240,2013-07-08 00:16:00
4:27 PM,44.6,42.8,93,30.00,1.8,SW,5.8,-,N/A,,Overcast,230,2013-07-08 00:27:00
4:53 PM,43.0,43.0,100,29.97,1.5,SW,6.9,-,N/A,,Overcast,220,2013-07-08 00:53:00
5:04 PM,42.8,42.8,100,30.01,2.0,SW,6.9,-,N/A,,Overcast,220,2013-07-08 01:04:00
5:11 PM,42.8,42.8,100,30.00,1.0,SW,6.9,-,N/A,,Overcast,220,2013-07-08 01:11:00
5:18 PM,42.8,42.8,100,30.00,0.2,SW,6.9,-,N/A,Fog,Fog,220,2013-07-08 01:18:00
5:53 PM,44.1,44.1,100,29.98,0.5,SW,6.9,-,0.00,Fog-Rain,Light Rain,220,2013-07-08 01:53:00
6:03 PM,42.8,42.8,100,30.01,1.2,SW,6.9,-,0.00,Rain,Light Rain,230,2013-07-08 02:03:00
6:08 PM,42.8,42.8,100,30.01,3.0,SW,5.8,-,0.00,Rain,Light Rain,230,2013-07-08 02:08:00
6:28 PM,42.8,42.8,100,30.01,1.5,SW,6.9,-,0.00,,Overcast,230,2013-07-08 02:28:00
6:32 PM,42.8,42.8,100,30.01,0.8,SW,6.9,-,0.00,,Overcast,230,2013-07-08 02:32:00
6:53 PM,43.0,43.0,100,29.97,0.5,SW,6.9,-,0.00,Fog,Fog,230,2013-07-08 02:53:00
7:38 PM,42.8,42.8,100,29.99,1.2,SSW,4.6,-,0.01,Rain,Light Rain,200,2013-07-08 03:38:00
7:49 PM,42.8,42.8,100,29.98,3.0,SSW,5.8,-,0.01,,Overcast,210,2013-07-08 03:49:00
7:53 PM,43.0,43.0,100,29.95,3.0,SSW,6.9,-,0.01,Rain,Light Rain,210,2013-07-08 03:53:00
8:53 PM,43.0,43.0,100,29.94,10.0,SSW,9.2,-,0.00,,Overcast,200,2013-07-08 04:53:00
9:53 PM,43.0,43.0,100,29.92,10.0,South,13.8,-,N/A,,Overcast,190,2013-07-08 05:53:00
10:02 PM,42.8,42.8,100,29.95,10.0,South,11.5,-,0.00,Rain,Light Rain,190,2013-07-08 06:02:00
10:16 PM,42.8,42.8,100,29.95,10.0,SSW,15.0,-,0.00,,Overcast,200,2013-07-08 06:16:00
10:53 PM,42.1,42.1,100,29.92,10.0,SSW,12.7,-,0.00,,Overcast,210,2013-07-08 06:53:00
11:19 PM,42.8,42.8,100,29.95,1.8,SSW,11.5,-,N/A,,Overcast,200,2013-07-08 07:19:00
11:23 PM,42.8,42.8,100,29.95,0.8,SSW,11.5,-,N/A,,Overcast,200,2013-07-08 07:23:00
11:53 PM,42.1,42.1,100,29.91,0.2,South,13.8,-,N/A,Fog,Fog,190,2013-07-08 07:53:00